Time;durP1;ratioP1;P1;durP2;ratioP2;P2;SDS_P1;SDS_P2;PMS_P1;PMS_P2;Temp;Humidity;BMP_temperature;BMP_pressure;BME280_temperature;BME280_humidity;BME280_pressure;Samples;Min_cycle;Max_cycle;Signal;HPM_P1;HPM_P2
2022/07/19 00:00:18;;;;;;;10.75;2.22;;;;;;;21.06;66.94;100420.53;4982919;28;20081;-78
2022/07/19 00:02:46;;;;;;;7.38;1.85;;;;;;;21.15;67.54;100446.75;4986170;28;20137;-78
2022/07/19 00:05:14;;;;;;;3.60;1.45;;;;;;;20.87;67.83;100409.72;4979618;28;20082;-77
2022/07/19 00:07:41;;;;;;;6.75;1.67;;;;;;;21.22;67.85;100447.00;4988288;28;20470;-77
2022/07/19 00:10:10;;;;;;;7.70;1.77;;;;;;;21.24;67.72;100435.28;4988045;28;20078;-77
2022/07/19 00:12:38;;;;;;;6.25;2.03;;;;;;;21.40;67.85;100436.28;4984831;28;20163;-77
2022/07/19 00:15:08;;;;;;;10.85;1.95;;;;;;;21.64;67.74;100443.06;4987991;28;20129;-78
2022/07/19 00:17:39;;;;;;;13.63;2.85;;;;;;;21.68;67.92;100447.69;4984562;28;20136;-78
2022/07/19 00:20:07;;;;;;;9.88;2.05;;;;;;;21.66;67.53;100420.81;4990228;28;20141;-77
2022/07/19 00:22:34;;;;;;;8.00;2.38;;;;;;;21.58;67.74;100410.44;4991999;28;20077;-79
2022/07/19 00:25:03;;;;;;;9.48;2.60;;;;;;;21.89;67.54;100447.53;4978073;28;20519;-78
2022/07/19 00:27:30;;;;;;;17.27;2.40;;;;;;;21.72;67.70;100420.22;4990971;28;20145;-78
2022/07/19 00:29:57;;;;;;;7.00;2.30;;;;;;;21.78;67.85;100435.00;4991001;28;20077;-78
2022/07/19 00:32:27;;;;;;;10.68;1.80;;;;;;;21.91;67.87;100444.31;4994164;28;20491;-79
2022/07/19 00:34:54;;;;;;;7.70;1.50;;;;;;;21.76;67.64;100414.63;4993127;28;20473;-78
2022/07/19 00:37:21;;;;;;;10.63;2.13;;;;;;;21.73;67.81;100416.19;4987694;28;20081;-78
2022/07/19 00:39:48;;;;;;;7.55;2.22;;;;;;;21.61;68.17;100402.00;4988259;28;20054;-78
2022/07/19 00:42:15;;;;;;;7.32;1.80;;;;;;;21.85;67.86;100429.53;4989692;28;20046;-78
2022/07/19 00:44:42;;;;;;;9.20;1.90;;;;;;;21.76;68.08;100409.78;4986346;28;20085;-79
2022/07/19 00:47:08;;;;;;;5.80;1.98;;;;;;;21.82;68.39;100418.88;4991039;28;20138;-79
2022/07/19 00:49:35;;;;;;;8.85;2.58;;;;;;;21.74;68.44;100402.78;5000063;28;20503;-80
2022/07/19 00:52:03;;;;;;;7.05;1.88;;;;;;;22.04;68.39;100442.25;4985931;28;20090;-80
2022/07/19 00:54:34;;;;;;;13.23;3.00;;;;;;;21.88;68.58;100411.78;4985136;28;20062;-79
2022/07/19 00:57:02;;;;;;;10.77;3.00;;;;;;;21.98;68.52;100444.53;4982830;28;20066;-78
2022/07/19 00:59:31;;;;;;;11.90;2.43;;;;;;;21.79;68.50;100416.75;4987964;28;20057;-79
2022/07/19 01:01:58;;;;;;;8.65;3.03;;;;;;;21.83;68.78;100406.31;4984998;28;20479;-78
2022/07/19 01:04:26;;;;;;;10.38;2.58;;;;;;;21.88;68.55;100422.28;4986507;28;20104;-79
2022/07/19 01:06:53;;;;;;;6.20;2.55;;;;;;;22.12;69.01;100436.44;4986632;28;20130;-77
2022/07/19 01:09:20;;;;;;;9.27;2.30;;;;;;;22.00;68.61;100414.53;4982917;28;20495;-78
2022/07/19 01:11:47;;;;;;;9.38;2.92;;;;;;;22.01;69.06;100424.72;4989141;28;20818;-78
2022/07/19 01:14:14;;;;;;;11.23;2.55;;;;;;;22.06;68.98;100429.34;4984053;28;20125;-78
2022/07/19 01:16:45;;;;;;;11.02;3.90;;;;;;;22.04;69.02;100422.34;4987281;28;20138;-78
2022/07/19 01:19:13;;;;;;;14.40;2.30;;;;;;;22.08;69.19;100418.41;4987912;28;20057;-78
2022/07/19 01:21:41;;;;;;;9.98;2.40;;;;;;;22.18;69.28;100426.47;4990406;28;20598;-79
2022/07/19 01:24:08;;;;;;;7.38;2.30;;;;;;;22.25;69.11;100448.59;4977512;28;20102;-78
2022/07/19 01:26:35;;;;;;;11.00;2.40;;;;;;;22.33;69.10;100455.34;4988641;28;20153;-79
2022/07/19 01:29:03;;;;;;;15.10;2.53;;;;;;;22.15;68.73;100432.06;4985986;28;20485;-79
2022/07/19 01:31:30;;;;;;;9.55;2.38;;;;;;;22.21;68.72;100436.31;4980387;28;20081;-78
2022/07/19 01:33:57;;;;;;;11.07;3.22;;;;;;;22.18;69.16;100431.34;4997314;28;20491;-78
2022/07/19 01:36:24;;;;;;;13.57;2.90;;;;;;;22.12;69.14;100413.69;5009272;28;20066;-77
2022/07/19 01:38:51;;;;;;;13.93;2.40;;;;;;;22.19;68.98;100427.31;5015865;28;20046;-78
2022/07/19 01:41:18;;;;;;;9.57;2.88;;;;;;;22.35;68.94;100442.38;5008365;28;20061;-78
2022/07/19 01:43:45;;;;;;;8.10;2.28;;;;;;;22.19;69.28;100427.31;5000843;28;20170;-78
2022/07/19 01:46:12;;;;;;;12.60;2.40;;;;;;;22.22;69.05;100440.78;5007247;28;20034;-79
2022/07/19 01:48:39;;;;;;;9.90;2.42;;;;;;;22.23;68.96;100445.31;5011701;28;20128;-78
2022/07/19 01:51:06;;;;;;;10.23;2.95;;;;;;;22.26;68.98;100438.91;5006636;28;20051;-78
2022/07/19 01:53:33;;;;;;;11.10;2.90;;;;;;;22.32;68.68;100443.13;5001324;28;20125;-78
2022/07/19 01:56:04;;;;;;;14.85;2.70;;;;;;;22.33;69.07;100450.47;4986736;28;20522;-78
2022/07/19 01:58:31;;;;;;;10.88;2.90;;;;;;;22.27;68.95;100446.22;4997946;28;20129;-80
2022/07/19 02:01:01;;;;;;;12.20;2.15;;;;;;;22.23;69.00;100428.25;5002456;28;20051;-79
2022/07/19 02:03:28;;;;;;;15.23;2.20;;;;;;;22.18;68.95;100431.34;4987526;28;20043;-80
2022/07/19 02:05:55;;;;;;;12.02;3.10;;;;;;;22.00;69.11;100397.50;5001270;28;20037;-78
2022/07/19 02:08:22;;;;;;;15.35;2.83;;;;;;;22.11;69.08;100426.22;5010813;28;20069;-78
2022/07/19 02:10:49;;;;;;;8.93;2.67;;;;;;;22.13;69.17;100440.09;5009920;28;20046;-79
2022/07/19 02:13:16;;;;;;;14.32;2.60;;;;;;;22.22;69.50;100455.00;4998716;28;20097;-79
2022/07/19 02:15:43;;;;;;;15.13;3.08;;;;;;;22.09;69.29;100424.97;4977642;28;20054;-79
2022/07/19 02:18:10;;;;;;;7.22;2.92;;;;;;;22.12;69.39;100441.28;5003307;28;20050;-79
2022/07/19 02:20:37;;;;;;;10.23;2.88;;;;;;;22.03;69.05;100429.25;5002327;28;20051;-78
2022/07/19 02:23:04;;;;;;;12.48;2.33;;;;;;;22.16;69.34;100447.94;5005016;28;20042;-78
2022/07/19 02:25:31;;;;;;;9.55;3.05;;;;;;;22.13;69.30;100446.63;5002579;28;20089;-78
2022/07/19 02:27:57;;;;;;;5.22;2.25;;;;;;;22.06;69.17;100435.03;5007499;28;20046;-78
2022/07/19 02:30:24;;;;;;;15.88;2.05;;;;;;;21.77;69.50;100391.53;5005163;28;20057;-78
2022/07/19 02:32:52;;;;;;;14.13;2.20;;;;;;;22.07;69.30;100444.38;5002436;28;20058;-78
2022/07/19 02:35:24;;;;;;;8.55;2.08;;;;;;;22.15;69.33;100455.66;5007154;28;20046;-78
2022/07/19 02:37:51;;;;;;;7.68;1.73;;;;;;;22.12;69.17;100442.13;5006224;28;20074;-78
2022/07/19 02:40:18;;;;;;;6.88;2.30;;;;;;;22.16;69.07;100463.00;5000991;28;20097;-79
2022/07/19 02:42:45;;;;;;;7.55;2.95;;;;;;;22.13;69.43;100452.31;4994465;28;20047;-78
2022/07/19 02:45:11;;;;;;;7.72;2.20;;;;;;;21.96;69.56;100419.31;4999647;28;20076;-79
2022/07/19 02:47:38;;;;;;;9.32;2.13;;;;;;;22.17;69.37;100455.28;5003245;28;20047;-79
2022/07/19 02:50:06;;;;;;;8.18;2.22;;;;;;;22.08;69.08;100432.63;4994593;28;20100;-80
2022/07/19 02:52:33;;;;;;;8.18;2.92;;;;;;;22.14;69.40;100447.44;4984405;28;20073;-79
2022/07/19 02:55:00;;;;;;;9.55;1.88;;;;;;;22.03;69.08;100437.78;4982827;28;20488;-78
2022/07/19 02:57:27;;;;;;;10.63;2.17;;;;;;;22.16;69.16;100445.09;4991682;28;20173;-77
2022/07/19 02:59:54;;;;;;;7.35;1.73;;;;;;;22.11;69.19;100436.78;4995921;28;20050;-78
2022/07/19 03:02:21;;;;;;;9.18;2.38;;;;;;;22.20;69.18;100454.56;5009608;28;20050;-79
2022/07/19 03:04:48;;;;;;;5.80;1.50;;;;;;;22.22;69.26;100460.69;4997636;28;20050;-79
2022/07/19 03:07:15;;;;;;;7.78;1.95;;;;;;;21.93;69.21;100422.03;4996063;28;20129;-79
2022/07/19 03:09:42;;;;;;;7.80;2.40;;;;;;;22.01;69.27;100436.09;4992760;28;20093;-79
2022/07/19 03:12:09;;;;;;;6.07;1.83;;;;;;;22.09;69.44;100447.72;4975715;28;20134;-78
2022/07/19 03:14:35;;;;;;;3.90;1.70;;;;;;;22.22;69.12;100466.38;4987813;28;20078;-78
2022/07/19 03:17:02;;;;;;;3.88;1.98;;;;;;;22.06;68.87;100442.75;4990076;28;20076;-77
2022/07/19 03:19:29;;;;;;;7.40;2.15;;;;;;;22.23;69.10;100470.91;4991227;28;20055;-80
2022/07/19 03:21:56;;;;;;;4.10;1.77;;;;;;;22.16;69.11;100473.53;4991792;28;20078;-80
2022/07/19 03:24:23;;;;;;;6.70;1.83;;;;;;;22.02;69.13;100448.31;4996984;28;20089;-79
2022/07/19 03:26:50;;;;;;;8.57;2.33;;;;;;;22.09;69.08;100459.09;4991955;28;20078;-80
2022/07/19 03:29:17;;;;;;;6.28;1.40;;;;;;;22.18;69.36;100476.84;4978903;28;21467;-79
2022/07/19 03:31:44;;;;;;;4.05;1.67;;;;;;;22.04;69.06;100459.31;4983426;28;20556;-79
2022/07/19 03:34:11;;;;;;;11.13;1.88;;;;;;;22.22;68.87;100484.31;4984119;28;20051;-80
2022/07/19 03:36:38;;;;;;;8.23;2.10;;;;;;;21.84;68.91;100425.03;4987616;28;20078;-78
2022/07/19 03:39:05;;;;;;;6.80;1.65;;;;;;;22.12;69.21;100466.88;4993037;28;20047;-79
2022/07/19 03:41:32;;;;;;;4.18;1.70;;;;;;;22.25;68.88;100485.56;4985270;28;20054;-79
2022/07/19 03:43:59;;;;;;;13.27;2.08;;;;;;;22.18;68.71;100474.00;4986105;28;20049;-79
2022/07/19 03:46:28;;;;;;;9.73;1.83;;;;;;;22.21;69.00;100488.31;4989674;28;20086;-78
2022/07/19 03:48:56;;;;;;;12.93;2.40;;;;;;;22.18;68.79;100489.03;4988652;28;20050;-79
2022/07/19 03:51:23;;;;;;;13.60;2.70;;;;;;;22.14;68.82;100475.88;4980314;28;20093;-76
2022/07/19 03:53:50;;;;;;;8.23;2.03;;;;;;;22.07;68.83;100467.13;4991711;28;20054;-78
2022/07/19 03:56:20;;;;;;;7.00;2.42;;;;;;;22.20;68.12;100466.75;4995087;28;20082;-78
2022/07/19 03:58:48;;;;;;;6.90;2.20;;;;;;;22.00;67.79;100442.97;4984636;28;20598;-77
2022/07/19 04:01:16;;;;;;;6.10;1.80;;;;;;;22.27;67.98;100486.06;4989797;28;20070;-78
2022/07/19 04:03:49;;;;;;;5.55;1.80;;;;;;;22.25;67.71;100491.28;4993096;28;20130;-78
2022/07/19 04:06:16;;;;;;;5.18;2.35;;;;;;;22.07;68.05;100473.66;4986029;28;20050;-78
2022/07/19 04:08:42;;;;;;;9.45;2.38;;;;;;;22.23;67.54;100490.81;4992828;28;20491;-79
2022/07/19 04:11:09;;;;;;;8.02;2.20;;;;;;;21.92;67.50;100446.81;4992928;28;20122;-80
2022/07/19 04:13:36;;;;;;;10.75;1.98;;;;;;;21.75;67.67;100425.19;4989196;28;20142;-79
2022/07/19 04:16:04;;;;;;;7.60;2.40;;;;;;;22.06;67.72;100474.84;4988602;28;20414;-79
2022/07/19 04:18:31;;;;;;;12.55;2.85;;;;;;;21.98;67.54;100462.44;4993044;28;20050;-79
2022/07/19 04:20:58;;;;;;;8.20;1.70;;;;;;;22.24;67.61;100501.81;4991334;28;20141;-77
2022/07/19 04:23:25;;;;;;;5.93;2.47;;;;;;;22.21;67.13;100496.03;4994426;28;20458;-77
2022/07/19 04:25:52;;;;;;;6.63;2.00;;;;;;;22.05;67.21;100466.66;4989568;28;20068;-77
2022/07/19 04:28:19;;;;;;;7.40;2.35;;;;;;;22.04;67.56;100482.06;4991327;28;20129;-78
2022/07/19 04:30:49;;;;;;;7.50;1.98;;;;;;;22.20;67.19;100508.59;4989291;28;20090;-78
2022/07/19 04:33:18;;;;;;;6.38;2.03;;;;;;;22.12;67.06;100483.94;4993147;28;20053;-79
2022/07/19 04:35:45;;;;;;;7.85;2.10;;;;;;;22.22;66.79;100500.53;4982130;28;20129;-78
2022/07/19 04:38:12;;;;;;;9.32;2.40;;;;;;;22.27;66.78;100514.50;4991650;28;20050;-78
2022/07/19 04:40:39;;;;;;;9.95;2.22;;;;;;;22.28;66.71;100512.47;4992562;28;20168;-78
2022/07/19 04:43:06;;;;;;;4.47;2.42;;;;;;;22.10;66.70;100490.00;4980190;28;20141;-78
2022/07/19 04:45:33;;;;;;;7.43;1.98;;;;;;;22.33;66.65;100512.25;4997415;28;20089;-77
2022/07/19 04:48:00;;;;;;;6.30;2.00;;;;;;;22.32;66.67;100505.69;4993624;28;20050;-78
2022/07/19 04:50:27;;;;;;;5.22;1.85;;;;;;;22.13;66.36;100486.44;4992240;28;20546;-78
2022/07/19 04:52:54;;;;;;;10.05;2.22;;;;;;;22.21;66.47;100496.84;4993681;28;20138;-78
2022/07/19 04:55:28;;;;;;;3.97;1.90;;;;;;;22.19;66.43;100495.59;4988126;28;20064;-78
2022/07/19 04:57:55;;;;;;;9.25;2.65;;;;;;;22.28;66.38;100512.47;4989077;28;20061;-77
2022/07/19 05:00:22;;;;;;;6.03;1.73;;;;;;;21.99;66.41;100478.31;4985547;28;20086;-79
2022/07/19 05:02:49;;;;;;;16.90;3.30;;;;;;;22.20;66.46;100517.13;4989088;28;20141;-79
2022/07/19 05:05:27;;;;;;;7.32;1.70;;;;;;;22.15;66.52;100523.06;4989871;28;20050;-79
2022/07/19 05:07:58;;;;;;;7.07;2.20;;;;;;;21.74;66.61;100485.22;4987637;28;20094;-80
2022/07/19 05:10:25;;;;;;;6.38;1.95;;;;;;;21.82;66.71;100497.66;4992013;28;20053;-78
2022/07/19 05:12:52;;;;;;;5.35;2.00;;;;;;;21.76;66.87;100499.91;4986524;28;20118;-77
2022/07/19 05:15:18;;;;;;;6.53;2.78;;;;;;;21.81;66.66;100513.84;4986010;28;20385;-79
2022/07/19 05:17:46;;;;;;;4.40;1.80;;;;;;;21.76;66.94;100519.81;4992953;28;20136;-78
2022/07/19 05:20:15;;;;;;;7.38;1.92;;;;;;;21.57;66.93;100479.78;4995684;28;20077;-78
2022/07/19 05:22:43;;;;;;;9.20;3.15;;;;;;;21.80;66.84;100529.28;4986772;28;20081;-77
2022/07/19 05:25:14;;;;;;;7.50;1.67;;;;;;;21.72;66.69;100516.03;4984105;28;20584;-79
2022/07/19 05:27:41;;;;;;;15.27;1.95;;;;;;;21.77;67.20;100530.81;4987918;28;20197;-77
2022/07/19 05:30:08;;;;;;;7.55;1.70;;;;;;;21.83;66.85;100545.63;4972583;28;20196;-77
2022/07/19 05:32:35;;;;;;;5.68;2.10;;;;;;;21.78;66.98;100540.19;4984358;28;20081;-78
2022/07/19 05:35:02;;;;;;;7.25;2.22;;;;;;;21.69;66.72;100536.63;4988163;28;20130;-79
2022/07/19 05:37:29;;;;;;;10.75;2.72;;;;;;;21.67;66.79;100528.44;4989629;28;20590;-80
2022/07/19 05:39:56;;;;;;;10.38;3.00;;;;;;;21.61;66.97;100534.75;4984654;28;20066;-78
2022/07/19 05:42:22;;;;;;;6.90;2.20;;;;;;;21.48;67.23;100537.59;4989023;28;20109;-78
2022/07/19 05:44:49;;;;;;;11.30;2.50;;;;;;;21.59;67.34;100548.47;4992158;28;21125;-77
2022/07/19 05:47:17;;;;;;;6.30;2.55;;;;;;;21.56;67.02;100549.19;4990517;28;20077;-77
2022/07/19 05:49:44;;;;;;;12.00;2.30;;;;;;;21.60;67.12;100553.78;4984297;28;20081;-77
2022/07/19 05:52:11;;;;;;;7.10;2.50;;;;;;;21.59;67.33;100534.28;4986617;28;20058;-71
2022/07/19 05:54:38;;;;;;;7.82;2.05;;;;;;;21.73;66.89;100561.13;4985237;28;20055;-74
2022/07/19 05:57:05;;;;;;;7.97;2.20;;;;;;;21.67;66.90;100547.50;4982516;28;20694;-72
2022/07/19 05:59:35;;;;;;;6.55;2.47;;;;;;;21.74;66.81;100556.28;4979379;28;20069;-74
2022/07/19 06:02:02;;;;;;;;;;;;;;;21.83;67.05;100568.34;4978223;28;20114;-81
2022/07/19 06:04:30;;;;;;;7.43;2.15;;;;;;;21.91;66.75;100569.41;4978963;28;19925;-76
2022/07/19 06:06:57;;;;;;;6.43;1.90;;;;;;;21.74;66.91;100550.59;4981005;28;20055;-79
2022/07/19 06:09:23;;;;;;;12.38;3.25;;;;;;;21.84;67.09;100570.00;4984525;28;20149;-78
2022/07/19 06:11:52;;;;;;;5.07;2.50;;;;;;;21.68;66.80;100549.19;4985345;28;20047;-76
2022/07/19 06:14:19;;;;;;;6.97;2.57;;;;;;;21.85;66.83;100585.06;4986822;28;20052;-78
2022/07/19 06:16:46;;;;;;;5.78;1.88;;;;;;;21.87;66.47;100586.34;4980550;28;20085;-80
2022/07/19 06:19:13;;;;;;;6.60;2.28;;;;;;;21.82;66.69;100566.72;4989175;28;20053;-78
2022/07/19 06:21:40;;;;;;;9.65;2.28;;;;;;;21.86;66.73;100586.72;4991352;28;20133;-77
2022/07/19 06:24:07;;;;;;;6.05;1.80;;;;;;;21.90;66.55;100591.31;4989591;28;20137;-79
2022/07/19 06:26:34;;;;;;;3.03;1.63;;;;;;;21.86;66.57;100575.34;4976147;28;20478;-76
2022/07/19 06:29:01;;;;;;;7.00;2.50;;;;;;;22.09;66.33;100604.94;4978249;28;20097;-80
2022/07/19 06:31:28;;;;;;;7.90;2.78;;;;;;;21.94;66.47;100586.59;4980610;28;20086;-78
2022/07/19 06:33:55;;;;;;;11.75;2.50;;;;;;;22.08;66.13;100605.28;4984502;28;20504;-82
2022/07/19 06:36:22;;;;;;;3.80;2.17;;;;;;;22.00;66.32;100602.22;4995178;28;20094;-79
2022/07/19 06:38:49;;;;;;;7.25;2.50;;;;;;;22.15;66.45;100620.63;4985796;28;20089;-79
2022/07/19 06:41:16;;;;;;;11.75;2.25;;;;;;;22.11;66.08;100621.66;4977294;28;20086;-68
2022/07/19 06:43:43;;;;;;;6.32;2.30;;;;;;;22.16;65.91;100621.44;4982542;28;20110;-78
2022/07/19 06:46:10;;;;;;;5.18;2.00;;;;;;;21.93;65.84;100593.47;4986263;28;20137;-72
2022/07/19 06:48:38;;;;;;;10.63;2.28;;;;;;;22.10;65.78;100620.00;4984161;28;20081;-76
2022/07/19 06:51:07;;;;;;;8.40;2.10;;;;;;;22.06;65.52;100608.50;4987169;28;20392;-77
2022/07/19 06:53:36;;;;;;;12.63;2.53;;;;;;;22.12;65.61;100618.47;4981243;28;20152;-77
2022/07/19 06:56:03;;;;;;;5.07;1.75;;;;;;;22.06;65.66;100616.22;4978823;28;20141;-77
2022/07/19 06:58:30;;;;;;;3.35;1.85;;;;;;;22.13;65.42;100633.50;4977542;28;21737;-73
2022/07/19 07:01:04;;;;;;;4.38;1.63;;;;;;;22.09;65.21;100630.53;4985544;28;20146;-73
2022/07/19 07:03:31;;;;;;;6.03;2.60;;;;;;;22.20;65.01;100640.28;4984294;28;20598;-73
2022/07/19 07:05:58;;;;;;;5.97;1.80;;;;;;;22.23;64.77;100633.88;4988873;28;20133;-73
2022/07/19 07:08:24;;;;;;;7.65;2.97;;;;;;;22.17;64.69;100623.09;4983229;28;20498;-73
2022/07/19 07:10:51;;;;;;;5.50;1.95;;;;;;;22.20;64.66;100633.75;4972361;28;20055;-72
2022/07/19 07:13:18;;;;;;;3.45;1.73;;;;;;;22.30;64.62;100643.81;4984654;28;20470;-74
2022/07/19 07:15:45;;;;;;;6.22;1.95;;;;;;;22.71;64.29;100659.75;4982919;28;20528;-75
2022/07/19 07:18:12;;;;;;;7.13;1.88;;;;;;;23.00;64.33;100637.81;4988977;28;20137;-75
2022/07/19 07:20:39;;;;;;;8.15;2.85;;;;;;;23.36;63.57;100645.38;4992727;28;20050;-75
2022/07/19 07:23:06;;;;;;;8.68;2.13;;;;;;;23.30;62.60;100627.69;4988391;28;20414;-74
2022/07/19 07:25:33;;;;;;;7.78;2.00;;;;;;;23.48;62.43;100647.28;4985979;28;20192;-74
2022/07/19 07:28:00;;;;;;;8.13;2.40;;;;;;;23.63;61.90;100650.19;4984321;28;20070;-73
2022/07/19 07:30:26;;;;;;;6.50;1.67;;;;;;;23.83;61.42;100668.25;4987705;28;20479;-74
2022/07/19 07:32:53;;;;;;;5.47;1.60;;;;;;;23.81;60.98;100649.84;4994961;28;20506;-74
2022/07/19 07:35:20;;;;;;;6.45;2.60;;;;;;;23.89;60.55;100658.19;4986261;28;20518;-74
2022/07/19 07:37:47;;;;;;;5.90;2.25;;;;;;;24.00;60.42;100671.91;5001409;28;20080;-73
2022/07/19 07:40:14;;;;;;;4.45;1.83;;;;;;;23.84;60.04;100654.81;4992026;28;20080;-72
2022/07/19 07:42:41;;;;;;;4.78;1.85;;;;;;;23.76;60.15;100658.66;4988716;28;20047;-72
2022/07/19 07:45:09;;;;;;;4.68;1.88;;;;;;;23.57;59.82;100616.59;4987553;28;20082;-71
2022/07/19 07:47:36;;;;;;;8.85;1.88;;;;;;;23.62;59.68;100636.28;4984085;28;20145;-71
2022/07/19 07:50:05;;;;;;;3.47;1.25;;;;;;;23.77;59.17;100646.91;4992556;28;20162;-75
2022/07/19 07:52:33;;;;;;;7.72;1.90;;;;;;;23.76;59.71;100675.75;4998909;28;20089;-76
2022/07/19 07:55:01;;;;;;;6.93;2.50;;;;;;;23.50;59.28;100650.63;4988855;28;20518;-74
2022/07/19 07:57:48;;;;;;;7.50;1.98;;;;;;;23.44;59.45;100674.88;4990035;28;20054;-75
2022/07/19 08:00:15;;;;;;;5.88;1.58;;;;;;;23.28;59.31;100649.19;4987965;28;20134;-74
2022/07/19 08:02:44;;;;;;;5.25;1.98;;;;;;;23.48;59.66;100675.81;4994513;28;20133;-75
2022/07/19 08:05:11;;;;;;;4.43;1.93;;;;;;;23.53;59.32;100678.41;4987808;28;20122;-72
2022/07/19 08:07:47;;;;;;;6.07;2.13;;;;;;;23.40;58.87;100669.91;4994868;28;20085;-73
2022/07/19 08:10:19;;;;;;;6.13;2.55;;;;;;;23.35;59.20;100670.19;4991378;28;20046;-76
2022/07/19 08:12:45;;;;;;;3.97;1.67;;;;;;;23.00;59.23;100632.13;4988427;28;20104;-75
2022/07/19 08:15:12;;;;;;;9.15;1.65;;;;;;;23.08;58.70;100634.00;4983916;28;20089;-75
2022/07/19 08:17:39;;;;;;;6.93;2.58;;;;;;;23.26;58.81;100669.50;4986486;28;20518;-74
2022/07/19 08:20:07;;;;;;;4.97;1.95;;;;;;;23.33;58.96;100671.75;4988422;28;20054;-74
2022/07/19 08:22:34;;;;;;;6.22;1.80;;;;;;;23.24;59.05;100663.34;4988320;28;20079;-74
2022/07/19 08:25:01;;;;;;;7.55;2.15;;;;;;;23.13;58.99;100653.66;4988451;28;20581;-76
2022/07/19 08:27:28;;;;;;;6.78;1.70;;;;;;;23.19;59.33;100672.16;4983303;28;20158;-74
2022/07/19 08:29:55;;;;;;;8.48;1.75;;;;;;;23.13;58.82;100674.44;4986840;28;20145;-77
2022/07/19 08:32:22;;;;;;;4.40;1.98;;;;;;;23.11;58.90;100674.00;4987569;28;20078;-79
2022/07/19 08:34:48;;;;;;;3.13;1.83;;;;;;;23.05;58.93;100658.34;4993156;28;20062;-81
2022/07/19 08:37:15;;;;;;;5.22;2.05;;;;;;;23.26;58.90;100689.47;4989346;28;20137;-81
2022/07/19 08:39:42;;;;;;;5.97;1.65;;;;;;;23.22;58.69;100674.28;4986343;28;20050;-82
2022/07/19 08:42:09;;;;;;;6.70;1.70;;;;;;;23.46;58.60;100689.59;4990011;28;20074;-84
2022/07/19 08:44:39;;;;;;;6.15;1.60;;;;;;;23.06;58.34;100659.16;4987619;28;20129;-83
2022/07/19 08:47:06;;;;;;;6.47;2.28;;;;;;;23.14;58.90;100672.41;4985370;28;20124;-82
2022/07/19 08:49:33;;;;;;;8.27;2.15;;;;;;;23.29;59.03;100685.06;4981640;28;20062;-77
2022/07/19 08:52:01;;;;;;;3.78;1.67;;;;;;;23.44;58.96;100703.38;4985914;28;20472;-78
2022/07/19 08:54:28;;;;;;;6.25;2.03;;;;;;;23.39;59.04;100702.47;4985534;28;20129;-78
2022/07/19 08:59:46;;;;;;;7.40;3.08;;;;;;;23.57;58.93;100707.81;4989197;28;20054;-78
2022/07/19 09:02:13;;;;;;;4.53;1.85;;;;;;;23.40;59.02;100692.72;4993565;28;20124;-78
2022/07/19 09:04:41;;;;;;;6.43;2.08;;;;;;;23.67;58.39;100724.41;4992307;28;20073;-78
2022/07/19 09:07:08;;;;;;;5.38;1.45;;;;;;;23.47;58.82;100706.31;4983054;28;20133;-77
2022/07/19 09:09:36;;;;;;;6.40;1.90;;;;;;;23.54;58.95;100703.66;4987537;28;20194;-78
2022/07/19 09:12:05;;;;;;;5.82;1.80;;;;;;;23.68;58.95;100719.56;4983486;28;20074;-77
2022/07/19 09:14:35;;;;;;;4.95;2.30;;;;;;;23.86;58.82;100713.16;4981851;28;20137;-78
2022/07/19 09:17:19;;;;;;;5.55;1.58;;;;;;;24.24;58.87;100730.78;4986865;28;20085;-77
2022/07/19 09:19:49;;;;;;;6.25;2.88;;;;;;;24.30;57.92;100715.88;4982298;28;20078;-77
2022/07/19 09:22:18;;;;;;;7.22;2.20;;;;;;;24.81;57.39;100718.72;4985389;28;20150;-75
2022/07/19 09:24:49;;;;;;;3.45;1.52;;;;;;;25.39;56.66;100731.44;4984057;28;20590;-77
2022/07/19 09:27:17;;;;;;;3.38;1.50;;;;;;;25.92;55.69;100740.25;4984264;28;20073;-79
2022/07/19 09:29:50;;;;;;;4.35;2.38;;;;;;;26.31;55.23;100717.22;4990110;28;20058;-80
2022/07/19 09:32:22;;;;;;;6.45;1.80;;;;;;;27.13;53.95;100722.16;4984486;28;20578;-80
2022/07/19 09:34:56;;;;;;;7.30;2.47;;;;;;;27.52;53.03;100713.22;4985870;28;20065;-81
2022/07/19 09:37:30;;;;;;;5.40;1.67;;;;;;;27.55;52.07;100708.72;4990980;28;20066;-80
2022/07/19 09:40:06;;;;;;;4.30;1.90;;;;;;;27.50;51.93;100738.59;4990831;28;20471;-77
2022/07/19 09:42:38;;;;;;;1.80;1.40;;;;;;;27.85;51.22;100743.09;4986140;28;20054;-75
2022/07/19 09:45:07;;;;;;;5.20;1.50;;;;;;;28.01;50.29;100758.03;4984128;28;20054;-75
2022/07/19 09:47:40;;;;;;;4.32;1.65;;;;;;;28.17;50.20;100748.34;4977300;28;20082;-76
2022/07/19 09:50:14;;;;;;;4.82;1.88;;;;;;;28.68;49.49;100736.06;4984892;28;20074;-77
2022/07/19 09:52:42;;;;;;;4.68;1.38;;;;;;;29.10;47.92;100766.34;4992815;28;20054;-79
2022/07/19 09:55:15;;;;;;;7.13;1.77;;;;;;;28.57;48.03;100758.97;4986700;28;20054;-78
2022/07/19 09:57:44;;;;;;;5.18;1.42;;;;;;;28.38;48.71;100742.78;4985535;28;20581;-76
2022/07/19 10:00:13;;;;;;;5.13;2.08;;;;;;;27.78;48.54;100754.50;4987922;28;20412;-77
2022/07/19 10:02:43;;;;;;;5.10;1.13;;;;;;;27.60;49.05;100777.25;4985951;28;20500;-77
2022/07/19 10:05:12;;;;;;;6.40;1.90;;;;;;;27.83;48.72;100763.59;4982848;28;20796;-77
2022/07/19 10:07:40;;;;;;;4.75;1.80;;;;;;;27.93;48.02;100732.53;4984406;28;20054;-78
2022/07/19 10:10:12;;;;;;;4.55;1.67;;;;;;;28.44;47.96;100778.56;4982115;28;20054;-86
2022/07/19 10:12:41;;;;;;;5.88;1.83;;;;;;;28.23;48.18;100758.25;4979774;28;20434;-78
2022/07/19 10:15:11;;;;;;;5.03;2.38;;;;;;;28.69;47.06;100781.66;4984531;28;20132;-75
2022/07/19 10:18:01;;;;;;;4.05;1.80;;;;;;;29.10;47.34;100787.28;4983218;28;20827;-81
2022/07/19 10:20:29;;;;;;;6.60;2.00;;;;;;;29.13;46.28;100791.38;4990077;28;20082;-73
2022/07/19 10:23:01;;;;;;;6.30;1.50;;;;;;;28.65;46.30;100791.44;4983370;28;20065;-73
2022/07/19 10:25:47;;;;;;;4.70;1.60;;;;;;;28.00;47.68;100781.38;4982625;28;20379;-76
2022/07/19 10:28:34;;;;;;;2.72;1.35;;;;;;;27.58;47.37;100796.88;4977113;28;20054;-73
2022/07/19 10:31:30;;;;;;;7.15;1.73;;;;;;;26.81;48.06;100764.69;4979767;28;20073;-72
2022/07/19 10:34:01;;;;;;;4.32;1.80;;;;;;;26.70;48.79;100790.31;4981308;28;20058;-75
2022/07/19 10:36:46;;;;;;;6.35;2.20;;;;;;;26.96;49.17;100794.38;4982525;28;20060;-73
2022/07/19 10:39:24;;;;;;;8.43;2.13;;;;;;;27.71;47.97;100788.84;4982740;28;20148;-75
2022/07/19 10:42:21;;;;;;;3.85;1.38;;;;;;;27.87;47.22;100775.13;4987310;28;20137;-75
2022/07/19 10:44:57;;;;;;;6.75;2.47;;;;;;;28.14;46.76;100772.09;4974291;28;20081;-75
2022/07/19 10:47:39;;;;;;;9.02;3.03;;;;;;;28.46;46.60;100783.91;4976282;28;20074;-75
2022/07/19 10:50:21;;;;;;;4.70;2.58;;;;;;;28.22;46.59;100756.59;4984586;28;20125;-76
2022/07/19 10:52:48;;;;;;;5.93;1.70;;;;;;;28.23;46.42;100769.72;4984566;28;20499;-76
2022/07/19 10:55:19;;;;;;;6.55;1.70;;;;;;;28.89;45.66;100781.34;4981467;28;20146;-76
2022/07/19 10:57:53;;;;;;;6.15;1.77;;;;;;;29.41;45.19;100793.63;4984625;28;20054;-76
2022/07/19 11:00:22;;;;;;;4.20;2.03;;;;;;;30.14;44.54;100787.69;4986000;28;20150;-75
2022/07/19 11:02:50;;;;;;;;;;;;;;;30.20;45.24;100791.84;4984026;28;20054;-76
2022/07/19 11:05:24;;;;;;;4.05;1.50;;;;;;;29.89;44.38;100790.53;4984189;28;19925;-75
2022/07/19 11:07:53;;;;;;;2.60;1.40;;;;;;;29.55;44.24;100782.16;4978722;28;20078;-75
2022/07/19 11:10:29;;;;;;;4.78;1.50;;;;;;;29.45;43.85;100780.06;4976904;28;20198;-76
2022/07/19 11:12:58;;;;;;;3.78;1.73;;;;;;;29.46;43.83;100782.53;4982459;28;20542;-71
2022/07/19 11:15:28;;;;;;;4.15;1.60;;;;;;;29.84;43.48;100777.34;4979899;28;20046;-73
2022/07/19 11:18:06;;;;;;;3.95;1.42;;;;;;;29.99;42.40;100756.00;4986712;28;20082;-76
2022/07/19 11:20:36;;;;;;;8.15;2.38;;;;;;;29.74;42.74;100747.31;4981656;28;20082;-77
2022/07/19 11:23:04;;;;;;;4.53;2.05;;;;;;;30.10;42.39;100786.88;4990643;28;20499;-74
2022/07/19 11:25:38;;;;;;;4.03;1.73;;;;;;;29.86;42.02;100768.31;4988729;28;20503;-73
2022/07/19 11:28:06;;;;;;;4.65;1.90;;;;;;;30.31;41.64;100766.75;4989681;28;20494;-74
2022/07/19 11:30:35;;;;;;;3.65;1.75;;;;;;;30.58;40.67;100774.97;4979070;28;20084;-74
2022/07/19 11:33:05;;;;;;;4.93;1.60;;;;;;;30.36;41.39;100757.72;4987743;28;20566;-75